Time;durP1;ratioP1;P1;durP2;ratioP2;P2;SDS_P1;SDS_P2;PMS_P1;PMS_P2;Temp;Humidity;BMP_temperature;BMP_pressure;BME280_temperature;BME280_humidity;BME280_pressure;Samples;Min_cycle;Max_cycle;Signal;HPM_P1;HPM_P2
2023/07/23 00:00:19;;;;;;;;;;;;;;;23.89;43.68;100421.34;5447532;32;34225;-79
2023/07/23 00:03:21;;;;;;;;;;;;;;;24.50;42.34;100417.38;5442656;32;34209;-79
2023/07/23 00:06:23;;;;;;;;;;;;;;;24.47;42.44;100423.03;5445972;32;34853;-80
2023/07/23 00:09:25;;;;;;;;;;;;;;;24.22;43.01;100419.16;5446880;32;34353;-68
2023/07/23 00:12:27;;;;;;;;;;;;;;;23.74;43.86;100418.28;5443327;32;35367;-80
2023/07/23 00:15:29;;;;;;;;;;;;;;;23.86;44.15;100418.12;5450946;32;34336;-79
2023/07/23 00:18:31;;;;;;;;;;;;;;;24.33;43.20;100421.62;5444861;32;34301;-68
2023/07/23 00:21:33;;;;;;;;;;;;;;;24.02;43.79;100413.84;5434076;32;34841;-76
2023/07/23 00:24:36;;;;;;;;;;;;;;;24.30;43.26;100420.09;5427063;32;34788;-79
2023/07/23 00:27:38;;;;;;;;;;;;;;;24.44;42.91;100417.97;5444152;32;35545;-77
2023/07/23 00:30:40;;;;;;;;;;;;;;;23.86;44.43;100428.88;5428736;32;35095;-69
2023/07/23 00:33:42;;;;;;;;;;;;;;;23.75;44.73;100421.81;5425976;32;35361;-79
2023/07/23 00:36:44;;;;;;;;;;;;;;;23.71;44.81;100426.63;5420886;32;35338;-68
2023/07/23 00:39:46;;;;;;;;;;;;;;;24.02;44.00;100434.47;5428800;32;34937;-68
2023/07/23 00:42:48;;;;;;;;;;;;;;;23.79;45.15;100428.59;5447578;32;34836;-68
2023/07/23 00:45:50;;;;;;;;;;;;;;;24.04;44.69;100427.13;5426862;32;35506;-79
2023/07/23 00:48:52;;;;;;;;;;;;;;;24.29;44.10;100429.16;5444358;32;35422;-79
2023/07/23 00:51:54;;;;;;;;;;;;;;;24.62;43.38;100431.47;5439090;32;35058;-68
2023/07/23 00:54:56;;;;;;;;;;;;;;;23.65;45.22;100423.69;5441622;32;34733;-75
2023/07/23 00:57:58;;;;;;;;;;;;;;;23.58;45.50;100420.69;5419705;32;35025;-68
2023/07/23 01:01:00;;;;;;;;;;;;;;;23.06;47.37;100428.16;5427424;32;35126;-67
2023/07/23 01:04:02;;;;;;;;;;;;;;;23.05;47.37;100428.28;5431179;32;35078;-68
2023/07/23 01:07:07;;;;;;;;;;;;;;;22.83;47.87;100416.78;5443054;32;33878;-76
2023/07/23 01:10:09;;;;;;;;;;;;;;;22.80;48.08;100430.47;5421426;32;34930;-79
2023/07/23 01:13:11;;;;;;;;;;;;;;;23.74;46.48;100434.38;5433568;32;35024;-78
2023/07/23 01:16:13;;;;;;;;;;;;;;;24.03;45.55;100433.50;5430354;32;34536;-82
2023/07/23 01:19:15;;;;;;;;;;;;;;;24.00;45.58;100433.75;5431233;32;34969;-76
2023/07/23 01:22:17;;;;;;;;;;;;;;;23.73;46.09;100435.38;5427483;32;35029;-68
2023/07/23 01:25:19;;;;;;;;;;;;;;;23.56;46.55;100428.00;5444196;32;34224;-75
2023/07/23 01:28:21;;;;;;;;;;;;;;;23.12;47.63;100432.97;5427215;32;35241;-77
2023/07/23 01:31:23;;;;;;;;;;;;;;;22.58;49.12;100447.59;5427826;32;35191;-79
2023/07/23 01:34:25;;;;;;;;;;;;;;;22.63;48.69;100431.97;5443150;32;34752;-80
2023/07/23 01:37:27;;;;;;;;;;;;;;;22.33;49.80;100437.34;5427975;32;35465;-68
2023/07/23 01:40:28;;;;;;;;;;;;;;;22.78;48.04;100428.91;5445929;32;35139;-81
2023/07/23 01:43:30;;;;;;;;;;;;;;;22.65;48.84;100438.03;5442373;32;35410;-79
2023/07/23 01:46:32;;;;;;;;;;;;;;;23.50;47.20;100436.63;5445653;32;34837;-68
2023/07/23 01:49:34;;;;;;;;;;;;;;;23.93;46.03;100435.34;5431629;32;35634;-68
2023/07/23 01:52:36;;;;;;;;;;;;;;;23.73;46.51;100430.00;5432511;32;34368;-77
2023/07/23 01:55:38;;;;;;;;;;;;;;;23.84;46.29;100436.22;5431546;32;34970;-75
2023/07/23 01:58:40;;;;;;;;;;;;;;;23.54;46.94;100430.00;5442989;32;35142;-76
2023/07/23 02:01:42;;;;;;;;;;;;;;;22.98;48.56;100438.72;5445939;32;35214;-70
2023/07/23 02:04:44;;;;;;;;;;;;;;;23.37;47.84;100433.37;5441666;32;34750;-80
2023/07/23 02:07:46;;;;;;;;;;;;;;;22.70;49.41;100437.63;5446539;32;35330;-68
2023/07/23 02:10:48;;;;;;;;;;;;;;;22.52;49.70;100445.47;5442298;32;35533;-69
2023/07/23 02:13:50;;;;;;;;;;;;;;;22.37;50.23;100444.97;5429346;32;35653;-68
2023/07/23 02:16:52;;;;;;;;;;;;;;;23.12;49.04;100440.13;5445485;32;34998;-68
2023/07/23 02:19:54;;;;;;;;;;;;;;;23.09;48.48;100441.28;5441672;32;35045;-68
2023/07/23 02:22:56;;;;;;;;;;;;;;;23.39;48.06;100434.94;5447678;32;35524;-80
2023/07/23 02:25:58;;;;;;;;;;;;;;;22.89;48.67;100439.56;5416132;32;34496;-68
2023/07/23 02:29:00;;;;;;;;;;;;;;;22.95;49.16;100439.84;5431853;32;34495;-75
2023/07/23 02:32:02;;;;;;;;;;;;;;;23.29;48.19;100444.81;5438629;32;34743;-79
2023/07/23 02:35:04;;;;;;;;;;;;;;;22.74;49.36;100443.56;5431262;32;34281;-82
2023/07/23 02:38:07;;;;;;;;;;;;;;;22.21;50.64;100454.47;5436129;32;35049;-79
2023/07/23 02:41:09;;;;;;;;;;;;;;;22.36;51.20;100445.12;5430910;32;35769;-69
2023/07/23 02:44:12;;;;;;;;;;;;;;;22.07;52.20;100458.31;5445531;32;34321;-68
2023/07/23 02:47:14;;;;;;;;;;;;;;;22.26;52.06;100462.97;5440873;32;35044;-67
2023/07/23 02:50:16;;;;;;;;;;;;;;;22.52;51.39;100461.53;5444548;32;34746;-68
2023/07/23 02:53:18;;;;;;;;;;;;;;;22.71;50.98;100463.44;5441766;32;34404;-80
2023/07/23 02:56:20;;;;;;;;;;;;;;;22.05;52.45;100458.44;5429234;32;35082;-69
2023/07/23 02:59:22;;;;;;;;;;;;;;;22.12;53.00;100461.47;5446556;32;34838;-80
2023/07/23 03:02:24;;;;;;;;;;;;;;;22.26;52.48;100452.25;5441097;32;34778;-68
2023/07/23 03:05:26;;;;;;;;;;;;;;;22.23;52.38;100449.84;5432438;32;35336;-68
2023/07/23 03:08:28;;;;;;;;;;;;;;;22.27;51.56;100451.25;5440487;32;34967;-68
2023/07/23 03:11:32;;;;;;;;;;;;;;;22.98;50.61;100449.44;5430969;32;35667;-68
2023/07/23 03:14:34;;;;;;;;;;;;;;;21.80;53.41;100454.34;5439824;32;35053;-70
2023/07/23 03:17:36;;;;;;;;;;;;;;;21.94;52.77;100455.84;5442570;32;34755;-68
2023/07/23 03:20:37;;;;;;;;;;;;;;;22.52;51.29;100448.13;5443334;32;34560;-68
2023/07/23 03:23:40;;;;;;;;;;;;;;;22.36;51.23;100459.38;5441440;32;35061;-68
2023/07/23 03:26:42;;;;;;;;;;;;;;;22.27;52.24;100456.63;5445929;32;34999;-68
2023/07/23 03:29:44;;;;;;;;;;;;;;;22.22;52.21;100457.03;5442621;32;34783;-80
2023/07/23 03:32:45;;;;;;;;;;;;;;;21.92;53.08;100455.13;5443578;32;34857;-79
2023/07/23 03:35:47;;;;;;;;;;;;;;;22.31;50.92;100448.19;5442078;32;34765;-68
2023/07/23 03:38:50;;;;;;;;;;;;;;;22.62;49.97;100445.50;5445422;32;35887;-81
2023/07/23 03:41:52;;;;;;;;;;;;;;;22.85;49.14;100438.94;5433866;32;35298;-70
2023/07/23 03:44:54;;;;;;;;;;;;;;;23.29;47.94;100436.78;5416926;32;34464;-81
2023/07/23 03:47:56;;;;;;;;;;;;;;;23.61;47.16;100438.31;5448965;32;34809;-81
2023/07/23 03:50:58;;;;;;;;;;;;;;;23.81;46.45;100444.53;5429212;32;34633;-70
2023/07/23 03:54:00;;;;;;;;;;;;;;;24.10;45.70;100437.28;5431970;32;34920;-70
2023/07/23 03:57:02;;;;;;;;;;;;;;;23.59;47.14;100441.16;5445658;32;35376;-69
2023/07/23 04:00:05;;;;;;;;;;;;;;;22.56;50.44;100454.94;5427718;32;34706;-81
2023/07/23 04:03:07;;;;;;;;;;;;;;;22.85;49.67;100446.97;5435279;32;34584;-68
2023/07/23 04:06:09;;;;;;;;;;;;;;;22.61;50.65;100441.16;5442870;32;34447;-79
2023/07/23 04:09:13;;;;;;;;;;;;;;;22.94;49.53;100445.34;5449776;32;34424;-70
2023/07/23 04:12:15;;;;;;;;;;;;;;;23.86;46.68;100440.44;5430001;32;34901;-68
2023/07/23 04:15:17;;;;;;;;;;;;;;;24.39;45.16;100436.34;5442453;32;35302;-68
2023/07/23 04:18:19;;;;;;;;;;;;;;;24.45;44.96;100435.75;5444638;32;35853;-69
2023/07/23 04:21:22;;;;;;;;;;;;;;;24.18;45.66;100440.06;5442788;32;36103;-76
2023/07/23 04:24:23;;;;;;;;;;;;;;;22.93;49.14;100449.88;5429185;32;34690;-80
2023/07/23 04:27:25;;;;;;;;;;;;;;;22.99;49.97;100448.44;5436066;32;34613;-70
2023/07/23 04:30:28;;;;;;;;;;;;;;;22.63;51.10;100456.09;5441921;32;34253;-69
2023/07/23 04:33:29;;;;;;;;;;;;;;;22.64;52.07;100457.78;5437662;32;34767;-69
2023/07/23 04:36:34;;;;;;;;;;;;;;;22.85;50.54;100459.53;5441199;32;34842;-80
2023/07/23 04:39:36;;;;;;;;;;;;;;;23.02;49.84;100458.91;5447751;32;35141;-69
2023/07/23 04:42:38;;;;;;;;;;;;;;;22.65;50.55;100454.09;5443607;32;34744;-77
2023/07/23 04:45:40;;;;;;;;;;;;;;;23.10;49.31;100453.69;5433079;32;34573;-69
2023/07/23 04:48:42;;;;;;;;;;;;;;;23.57;47.92;100455.69;5427739;32;34751;-69
2023/07/23 04:51:44;;;;;;;;;;;;;;;24.19;46.50;100457.87;5446325;32;34957;-69
2023/07/23 04:54:46;;;;;;;;;;;;;;;24.69;44.69;100465.62;5431319;32;35303;-69
2023/07/23 04:57:48;;;;;;;;;;;;;;;25.34;43.17;100463.69;5445886;32;34679;-79
2023/07/23 05:00:50;;;;;;;;;;;;;;;25.37;43.12;100463.41;5432799;32;35044;-69
2023/07/23 05:03:52;;;;;;;;;;;;;;;25.34;43.19;100458.31;5434056;32;34297;-68
2023/07/23 05:06:54;;;;;;;;;;;;;;;24.88;44.42;100463.84;5447481;32;34951;-69
2023/07/23 05:09:56;;;;;;;;;;;;;;;25.41;43.26;100469.31;5440022;32;34349;-68
2023/07/23 05:12:58;;;;;;;;;;;;;;;25.46;43.30;100468.84;5436158;32;34978;-70
2023/07/23 05:16:02;;;;;;;;;;;;;;;26.14;41.54;100477.16;5434142;32;34868;-69
2023/07/23 05:19:04;;;;;;;;;;;;;;;25.33;43.54;100482.69;5442290;32;34513;-69
2023/07/23 05:22:07;;;;;;;;;;;;;;;25.33;43.30;100480.00;5446731;32;36016;-78
2023/07/23 05:25:09;;;;;;;;;;;;;;;25.62;43.16;100474.37;5442354;32;36763;-70
2023/07/23 05:28:11;;;;;;;;;;;;;;;25.99;42.47;100481.44;5435586;32;34706;-72
2023/07/23 05:31:13;;;;;;;;;;;;;;;26.59;41.18;100490.41;5431252;32;35325;-81
2023/07/23 05:34:15;;;;;;;;;;;;;;;26.13;41.73;100494.31;5445808;32;35703;-81
2023/07/23 05:37:17;;;;;;;;;;;;;;;27.63;38.84;100489.22;5428089;32;35890;-77
2023/07/23 05:40:18;;;;;;;;;;;;;;;28.34;37.29;100488.56;5441694;32;35521;-71
2023/07/23 05:43:20;;;;;;;;;;;;;;;28.20;37.80;100500.03;5444577;32;35000;-82
2023/07/23 05:46:22;;;;;;;;;;;;;;;28.52;36.46;100497.28;5439895;32;35282;-70
2023/07/23 05:49:25;;;;;;;;;;;;;;;28.44;36.08;100500.00;5446352;32;35085;-70
2023/07/23 05:52:27;;;;;;;;;;;;;;;27.57;38.03;100504.25;5442099;32;35724;-69
2023/07/23 05:55:29;;;;;;;;;;;;;;;29.46;34.30;100505.50;5436371;32;35388;-80
2023/07/23 05:58:31;;;;;;;;;;;;;;;28.28;36.37;100503.59;5443133;32;36070;-69
2023/07/23 06:01:33;;;;;;;;;;;;;;;28.78;35.96;100501.59;5428316;32;34202;-75
2023/07/23 06:04:38;;;;;;;;;;;;;;;28.59;35.73;100503.69;5431486;32;34969;-80
2023/07/23 06:07:40;;;;;;;;;;;;;;;28.75;35.41;100501.94;5433042;32;35212;-69
2023/07/23 06:10:42;;;;;;;;;;;;;;;30.29;32.75;100496.56;5443225;32;34102;-71
2023/07/23 06:13:44;;;;;;;;;;;;;;;30.45;32.51;100504.50;5442207;32;34969;-79
2023/07/23 06:16:46;;;;;;;;;;;;;;;29.80;33.76;100503.22;5446292;32;34727;-70
2023/07/23 06:19:48;;;;;;;;;;;;;;;31.37;31.32;100491.34;5441304;32;34869;-68
2023/07/23 06:22:50;;;;;;;;;;;;;;;31.86;29.88;100478.84;5429441;32;35341;-68
2023/07/23 06:25:55;;;;;;;;;;;;;;;30.24;32.67;100493.56;5442927;32;35341;-69
2023/07/23 06:28:57;;;;;;;;;;;;;;;30.52;32.60;100491.03;5427610;32;35412;-69
2023/07/23 06:31:59;;;;;;;;;;;;;;;29.93;32.78;100489.06;5430712;32;34510;-68
2023/07/23 06:35:01;;;;;;;;;;;;;;;29.23;34.23;100497.34;5436928;32;34943;-79
2023/07/23 06:38:06;;;;;;;;;;;;;;;31.00;31.74;100503.19;5434250;32;33573;-69
2023/07/23 06:41:08;;;;;;;;;;;;;;;32.34;29.30;100499.75;5445040;32;35484;-80
2023/07/23 06:44:10;;;;;;;;;;;;;;;31.70;29.63;100497.09;5441614;32;34731;-69
2023/07/23 06:47:13;;;;;;;;;;;;;;;32.26;29.04;100497.13;5431656;32;35099;-78
2023/07/23 06:50:17;;;;;;;;;;;;;;;32.74;28.62;100494.53;5421917;32;35785;-81
2023/07/23 06:53:20;;;;;;;;;;;;;;;33.80;27.11;100494.03;5446400;32;34332;-71
2023/07/23 06:56:21;;;;;;;;;;;;;;;31.19;31.27;100505.31;5440933;32;34957;-71
2023/07/23 06:59:23;;;;;;;;;;;;;;;33.03;28.19;100498.03;5445796;32;35229;-70
2023/07/23 07:02:25;;;;;;;;;;;;;;;33.37;27.54;100495.22;5446296;32;34583;-80
2023/07/23 07:05:27;;;;;;;;;;;;;;;34.02;26.92;100497.44;5433630;32;34192;-80
2023/07/23 07:08:30;;;;;;;;;;;;;;;33.65;27.43;100496.97;5445625;32;35537;-81
2023/07/23 07:11:33;;;;;;;;;;;;;;;34.96;25.71;100495.13;5442602;32;34978;-70
2023/07/23 07:14:35;;;;;;;;;;;;;;;33.94;26.88;100498.44;5439559;32;34762;-70
2023/07/23 07:17:36;;;;;;;;;;;;;;;35.09;25.41;100496.12;5439886;32;35494;-81
2023/07/23 07:20:38;;;;;;;;;;;;;;;32.33;29.34;100492.62;5428586;32;34975;-81
2023/07/23 07:23:40;;;;;;;;;;;;;;;35.66;25.07;100488.88;5444622;32;35344;-71
2023/07/23 07:26:42;;;;;;;;;;;;;;;33.61;27.89;100491.06;5442636;32;34793;-68
2023/07/23 07:29:44;;;;;;;;;;;;;;;32.61;29.26;100495.31;5440224;32;34718;-69
2023/07/23 07:32:46;;;;;;;;;;;;;;;32.67;29.00;100490.94;5426849;32;34638;-79
2023/07/23 07:35:49;;;;;;;;;;;;;;;33.21;28.84;100490.12;5440242;32;35096;-77
2023/07/23 07:38:53;;;;;;;;;;;;;;;34.97;25.97;100494.09;5442213;32;34958;-79
2023/07/23 07:41:56;;;;;;;;;;;;;;;35.38;25.18;100479.16;5433036;32;34236;-80
2023/07/23 07:44:58;;;;;;;;;;;;;;;34.53;26.49;100489.41;5445216;32;35505;-77
2023/07/23 07:48:00;;;;;;;;;;;;;;;33.06;28.89;100481.28;5443469;32;34995;-70
2023/07/23 07:51:03;;;;;;;;;;;;;;;34.11;28.15;100479.78;5447320;32;35533;-70
2023/07/23 07:54:05;;;;;;;;;;;;;;;34.26;27.38;100479.53;5433971;32;34736;-72
2023/07/23 07:57:07;;;;;;;;;;;;;;;34.29;27.20;100485.44;5438783;32;35654;-81
2023/07/23 08:00:09;;;;;;;;;;;;;;;33.25;28.79;100491.41;5434961;32;34959;-71
2023/07/23 08:03:11;;;;;;;;;;;;;;;34.97;26.60;100488.66;5444789;32;34597;-69
2023/07/23 08:06:14;;;;;;;;;;;;;;;34.74;26.43;100482.81;5433521;32;34360;-70
2023/07/23 08:09:17;;;;;;;;;;;;;;;33.64;28.42;100478.94;5813414;26;34588;-70
2023/07/23 08:12:29;;;;;;;;;;;;;;;36.23;24.16;100470.50;5759936;26;34757;-96
2023/07/23 08:15:31;;;;;;;;;;;;;;;36.35;23.45;100468.69;5474748;26;32609;-70
2023/07/23 08:18:33;;;;;;;;;;;;;;;35.16;24.69;100483.28;5441340;32;35709;-69
2023/07/23 08:21:35;;;;;;;;;;;;;;;34.78;25.28;100480.47;5431956;32;35389;-77
2023/07/23 08:24:37;;;;;;;;;;;;;;;37.31;21.88;100472.59;5429002;32;34526;-70
2023/07/23 08:27:39;;;;;;;;;;;;;;;36.12;23.20;100468.50;5442359;32;34159;-70
2023/07/23 08:30:41;;;;;;;;;;;;;;;38.05;20.41;100467.63;5442586;32;35406;-77
2023/07/23 08:33:43;;;;;;;;;;;;;;;36.47;22.18;100463.34;5428730;32;34260;-71
2023/07/23 08:36:45;;;;;;;;;;;;;;;37.50;21.25;100470.66;5438367;32;34583;-71
2023/07/23 08:39:47;;;;;;;;;;;;;;;37.36;21.19;100467.28;5435159;32;34847;-80
2023/07/23 08:42:55;;;;;;;;;;;;;;;36.96;21.28;100467.81;5447006;32;35293;-69
2023/07/23 08:46:24;;;;;;;;;;;;;;;36.90;21.61;100470.63;5424769;32;34332;-70
2023/07/23 08:49:26;;;;;;;;;;;;;;;36.26;22.08;100464.56;5440965;32;34430;-77
2023/07/23 08:52:28;;;;;;;;;;;;;;;35.13;23.58;100467.34;5432463;32;35414;-69
2023/07/23 08:55:30;;;;;;;;;;;;;;;34.66;24.43;100480.34;5426957;32;34668;-70
2023/07/23 08:58:32;;;;;;;;;;;;;;;34.34;24.87;100466.53;5445710;32;34882;-80
2023/07/23 09:01:37;;;;;;;;;;;;;;;36.59;21.77;100459.62;5428056;32;34729;-80
2023/07/23 09:04:40;;;;;;;;;;;;;;;35.98;22.35;100474.13;5445616;32;35457;-78
2023/07/23 09:07:42;;;;;;;;;;;;;;;34.33;24.62;100473.06;5445819;32;36092;-70
2023/07/23 09:10:44;;;;;;;;;;;;;;;35.34;23.38;100472.44;5440697;32;35354;-80
2023/07/23 09:13:46;;;;;;;;;;;;;;;35.17;23.32;100477.63;5446421;32;35664;-70
2023/07/23 09:16:48;;;;;;;;;;;;;;;36.26;22.18;100464.56;5437408;32;35118;-78
2023/07/23 09:19:52;;;;;;;;;;;;;;;37.17;21.16;100471.13;5442975;32;34146;-80
2023/07/23 09:22:54;;;;;;;;;;;;;;;36.25;22.25;100479.31;5441521;32;35349;-78
2023/07/23 09:26:00;;;;;;;;;;;;;;;36.51;21.97;100470.00;5441459;32;34322;-78
2023/07/23 09:29:03;;;;;;;;;;;;;;;36.18;22.13;100464.88;5429611;32;35467;-70
2023/07/23 09:32:15;;;;;;;;;;;;;;;36.67;21.41;100468.59;5436828;32;34495;-80
2023/07/23 09:35:30;;;;;;;;;;;;;;;37.85;20.15;100466.06;5780072;26;35015;-96
2023/07/23 09:38:45;;;;;;;;;;;;;;;39.14;18.99;100463.13;5453068;32;34455;-96
2023/07/23 09:41:49;;;;;;;;;;;;;;;38.55;19.51;100467.97;5447193;32;33673;-96
2023/07/23 09:44:59;;;;;;;;;;;;;;;35.88;21.88;100471.03;5444784;32;34973;-96
2023/07/23 09:48:02;;;;;;;;;;;;;;;35.16;23.25;100469.62;5456132;32;34581;-95
2023/07/23 09:51:18;;;;;;;;;;;;;;;37.05;21.13;100455.47;5445499;32;33403;-95
2023/07/23 09:54:29;;;;;;;;;;;;;;;36.81;20.43;100459.12;5815098;26;34605;-96
2023/07/23 09:57:40;;;;;;;;;;;;;;;36.02;20.77;100461.66;5441272;27;33424;-87
2023/07/23 10:00:42;;;;;;;;;;;;;;;35.27;22.12;100460.72;5390168;32;33950;-87
2023/07/23 10:03:45;;;;;;;;;;;;;;;35.41;21.88;100442.34;5410591;32;34718;-86
2023/07/23 10:06:50;;;;;;;;;;;;;;;36.87;20.31;100453.59;5381891;32;34536;-86
2023/07/23 10:09:52;;;;;;;;;;;;;;;36.49;20.83;100439.31;5407024;32;34934;-87
2023/07/23 10:12:54;;;;;;;;;;;;;;;37.13;19.01;100444.19;5396989;32;36187;-86
2023/07/23 10:15:56;;;;;;;;;;;;;;;34.37;23.21;100446.16;5406543;32;35103;-86
2023/07/23 10:18:58;;;;;;;;;;;;;;;34.04;24.27;100443.50;5409851;32;34319;-85
2023/07/23 10:22:01;;;;;;;;;;;;;;;36.30;21.07;100444.75;5392488;32;34967;-85
2023/07/23 10:25:25;;;;;;;;;;;;;;;35.24;22.90;100439.31;5409000;32;34201;-86
2023/07/23 10:28:30;;;;;;;;;;;;;;;35.67;22.24;100427.66;5408573;32;34425;-87
2023/07/23 10:31:34;;;;;;;;;;;;;;;35.11;22.42;100442.16;5388417;32;34981;-86
2023/07/23 10:34:37;;;;;;;;;;;;;;;35.79;21.68;100428.59;5411992;32;36201;-87
2023/07/23 10:37:39;;;;;;;;;;;;;;;34.42;22.84;100443.66;5410659;32;35437;-87
2023/07/23 10:40:44;;;;;;;;;;;;;;;34.98;22.30;100430.25;5411590;32;34758;-87
2023/07/23 10:43:55;;;;;;;;;;;;;;;36.37;21.31;100427.41;5410049;32;34973;-86
2023/07/23 10:46:58;;;;;;;;;;;;;;;36.95;20.55;100421.47;5410912;32;34922;-86
2023/07/23 10:50:10;;;;;;;;;;;;;;;36.68;20.65;100410.84;5406776;32;35733;-85
2023/07/23 10:53:12;;;;;;;;;;;;;;;37.61;19.85;100406.75;5406614;32;34675;-88
2023/07/23 10:56:32;;;;;;;;;;;;;;;38.50;18.82;100409.38;5411764;32;34803;-89
2023/07/23 10:59:34;;;;;;;;;;;;;;;39.99;17.14;100393.34;5394967;32;35565;-87
2023/07/23 11:02:36;;;;;;;;;;;;;;;36.83;20.25;100396.75;5393703;32;34818;-88
2023/07/23 11:05:40;;;;;;;;;;;;;;;37.81;19.39;100399.06;5401225;32;35267;-86
2023/07/23 11:08:47;;;;;;;;;;;;;;;37.28;19.72;100391.66;5394583;32;35542;-88
2023/07/23 11:11:49;;;;;;;;;;;;;;;37.58;19.48;100391.62;5410842;32;36031;-86
2023/07/23 11:14:52;;;;;;;;;;;;;;;39.22;17.70;100376.72;5409054;32;34706;-87
2023/07/23 11:17:54;;;;;;;;;;;;;;;39.88;17.13;100368.72;5385055;32;34721;-87
2023/07/23 11:21:11;;;;;;;;;;;;;;;39.82;17.23;100372.47;5408802;32;34418;-88
2023/07/23 11:24:13;;;;;;;;;;;;;;;39.01;17.75;100372.75;5408563;32;34651;-87
2023/07/23 11:27:17;;;;;;;;;;;;;;;38.73;17.84;100368.97;5410575;32;34338;-89
2023/07/23 11:30:19;;;;;;;;;;;;;;;38.82;17.79;100363.91;5392629;32;35052;-86
2023/07/23 11:33:22;;;;;;;;;;;;;;;37.09;19.70;100362.69;5395737;32;34756;-87
2023/07/23 11:36:24;;;;;;;;;;;;;;;39.73;17.00;100350.88;5406153;32;34747;-88
2023/07/23 11:39:26;;;;;;;;;;;;;;;39.16;17.48;100345.59;5412830;32;35354;-88
2023/07/23 11:42:31;;;;;;;;;;;;;;;38.59;18.29;100356.59;5404193;32;35377;-86
2023/07/23 11:45:44;;;;;;;;;;;;;;;37.96;18.69;100349.22;5382367;32;34480;-87
2023/07/23 11:48:46;;;;;;;;;;;;;;;39.32;17.74;100332.09;5411712;32;34537;-87
2023/07/23 11:51:48;;;;;;;;;;;;;;;39.33;17.60;100328.25;5403609;32;35063;-87
2023/07/23 11:54:50;;;;;;;;;;;;;;;41.38;15.70;100334.09;5386075;32;35498;-88
2023/07/23 11:57:53;;;;;;;;;;;;;;;40.69;16.13;100331.22;5408400;32;36842;-89
2023/07/23 12:00:57;;;;;;;;;;;;;;;40.16;16.82;100321.78;5408732;32;35409;-90
2023/07/23 12:04:03;;;;;;;;;;;;;;;41.12;15.90;100318.41;5410792;32;35153;-88
2023/07/23 12:07:06;;;;;;;;;;;;;;;41.49;15.57;100312.94;5407509;32;34127;-86
2023/07/23 12:10:08;;;;;;;;;;;;;;;38.96;17.64;100313.06;5412157;32;35112;-89
2023/07/23 12:13:10;;;;;;;;;;;;;;;36.67;20.30;100309.78;5404006;32;35118;-86
2023/07/23 12:16:33;;;;;;;;;;;;;;;38.77;18.14;100299.78;5397599;32;35002;-87
2023/07/23 12:19:41;;;;;;;;;;;;;;;39.17;17.66;100310.69;5391097;32;35647;-87
2023/07/23 12:22:53;;;;;;;;;;;;;;;37.41;19.50;100300.19;5394925;32;34593;-88
2023/07/23 12:25:55;;;;;;;;;;;;;;;38.52;18.36;100302.91;5409020;32;37087;-87
2023/07/23 12:28:57;;;;;;;;;;;;;;;35.74;20.72;100305.41;5408815;32;35801;-86
2023/07/23 12:32:12;;;;;;;;;;;;;;;35.05;22.34;100304.56;5410122;32;34467;-86
2023/07/23 12:35:15;;;;;;;;;;;;;;;33.85;23.40;100307.00;5399798;32;36397;-88
2023/07/23 12:38:17;;;;;;;;;;;;;;;33.44;24.26;100296.38;5409058;32;34775;-88
2023/07/23 12:41:18;;;;;;;;;;;;;;;33.88;23.89;100294.84;5411605;32;35447;-87
2023/07/23 12:44:21;;;;;;;;;;;;;;;33.27;23.89;100293.22;5396733;32;35418;-87
2023/07/23 12:47:26;;;;;;;;;;;;;;;33.78;23.61;100300.72;5396718;32;36197;-86
2023/07/23 12:50:28;;;;;;;;;;;;;;;32.98;24.71;100288.22;5397520;32;34942;-86
2023/07/23 12:53:33;;;;;;;;;;;;;;;32.27;25.79;100284.03;5396376;32;34853;-87
2023/07/23 12:56:35;;;;;;;;;;;;;;;33.12;25.08;100289.88;5392576;32;34872;-87
2023/07/23 12:59:37;;;;;;;;;;;;;;;33.50;24.23;100286.53;5394506;32;33979;-86
2023/07/23 13:02:40;;;;;;;;;;;;;;;32.84;24.96;100284.56;5397230;32;34253;-87
2023/07/23 13:05:42;;;;;;;;;;;;;;;32.68;24.73;100285.81;5392741;32;34855;-86
2023/07/23 13:08:44;;;;;;;;;;;;;;;32.58;25.21;100275.31;5408054;32;34714;-86
2023/07/23 13:11:46;;;;;;;;;;;;;;;32.60;25.34;100269.69;5391670;32;34689;-88
2023/07/23 13:14:48;;;;;;;;;;;;;;;32.43;25.49;100279.28;5384591;32;34671;-85
2023/07/23 13:17:50;;;;;;;;;;;;;;;32.31;26.01;100265.41;5394942;32;35578;-86
2023/07/23 13:20:52;;;;;;;;;;;;;;;32.00;26.16;100258.59;5393943;32;34886;-86
2023/07/23 13:23:54;;;;;;;;;;;;;;;32.24;25.71;100259.94;5413151;32;33829;-86
2023/07/23 13:26:56;;;;;;;;;;;;;;;31.76;26.18;100264.53;5406902;32;34869;-85
2023/07/23 13:29:58;;;;;;;;;;;;;;;32.25;25.23;100256.16;5409374;32;34808;-88
2023/07/23 13:33:00;;;;;;;;;;;;;;;32.21;25.86;100245.94;5392316;32;34753;-88
2023/07/23 13:36:02;;;;;;;;;;;;;;;32.51;25.79;100254.59;5407766;32;35010;-87
2023/07/23 13:39:04;;;;;;;;;;;;;;;32.68;25.24;100247.72;5393382;32;34632;-86
2023/07/23 13:42:06;;;;;;;;;;;;;;;32.70;25.32;100244.78;5387137;32;35610;-88
2023/07/23 13:45:08;;;;;;;;;;;;;;;31.91;26.31;100242.66;5394707;32;37178;-86
2023/07/23 13:48:11;;;;;;;;;;;;;;;32.42;25.51;100242.25;5391013;32;34955;-85
2023/07/23 13:51:13;;;;;;;;;;;;;;;32.65;24.97;100228.25;5404693;32;34149;-87
2023/07/23 13:54:15;;;;;;;;;;;;;;;32.52;25.36;100237.22;5409684;32;36819;-86
2023/07/23 13:57:17;;;;;;;;;;;;;;;32.40;25.65;100236.19;5408811;32;35185;-86
2023/07/23 14:00:19;;;;;;;;;;;;;;;31.84;26.66;100231.78;5408562;32;34763;-87
2023/07/23 14:03:24;;;;;;;;;;;;;;;32.05;26.81;100222.66;5393069;32;34811;-86
2023/07/23 14:06:26;;;;;;;;;;;;;;;32.46;26.09;100228.03;5410706;32;34920;-85
2023/07/23 14:09:29;;;;;;;;;;;;;;;32.41;25.83;100216.94;5412119;32;35425;-87
2023/07/23 14:12:31;;;;;;;;;;;;;;;31.90;26.77;100211.09;5390827;32;34285;-86
2023/07/23 14:15:33;;;;;;;;;;;;;;;32.57;25.55;100226.56;5406505;32;35493;-86
2023/07/23 14:18:35;;;;;;;;;;;;;;;32.87;24.93;100227.06;5409476;32;35021;-88
2023/07/23 14:21:38;;;;;;;;;;;;;;;32.76;24.97;100219.47;5395567;32;34414;-88
2023/07/23 14:24:40;;;;;;;;;;;;;;;33.07;24.01;100214.28;5397404;32;34750;-87
2023/07/23 14:27:42;;;;;;;;;;;;;;;32.48;24.97;100212.34;5407619;32;35382;-88
2023/07/23 14:30:47;;;;;;;;;;;;;;;33.12;24.71;100210.91;5389984;32;34409;-89
2023/07/23 14:33:51;;;;;;;;;;;;;;;32.53;25.74;100209.84;5407325;32;35475;-88
2023/07/23 14:36:54;;;;;;;;;;;;;;;32.88;25.43;100213.22;5392544;32;35727;-86
2023/07/23 14:39:56;;;;;;;;;;;;;;;33.39;24.68;100206.28;5412999;32;34409;-87
2023/07/23 14:42:58;;;;;;;;;;;;;;;32.89;24.99;100203.19;5411209;32;36002;-87
2023/07/23 14:46:00;;;;;;;;;;;;;;;32.51;25.68;100195.59;5406968;32;35353;-88
2023/07/23 14:49:02;;;;;;;;;;;;;;;31.79;25.97;100207.06;5412983;32;36073;-86
2023/07/23 14:52:04;;;;;;;;;;;;;;;33.04;24.42;100195.66;5421498;32;33979;-87
2023/07/23 14:55:07;;;;;;;;;;;;;;;32.69;24.77;100196.87;5400403;32;34967;-87
2023/07/23 14:58:11;;;;;;;;;;;;;;;32.58;25.36;100188.28;5406456;32;34901;-88
2023/07/23 15:01:13;;;;;;;;;;;;;;;32.41;25.70;100188.91;5410079;32;34388;-87
2023/07/23 15:04:16;;;;;;;;;;;;;;;31.48;26.80;100192.06;5397622;32;34281;-88
2023/07/23 15:07:18;;;;;;;;;;;;;;;32.15;26.06;100174.19;5410506;32;35519;-87
2023/07/23 15:10:20;;;;;;;;;;;;;;;32.65;25.35;100179.28;5413049;32;34236;-86
2023/07/23 15:13:24;;;;;;;;;;;;;;;32.47;25.27;100177.19;5395235;32;35589;-87
2023/07/23 15:16:26;;;;;;;;;;;;;;;32.62;24.89;100180.53;5395933;32;35332;-86
2023/07/23 15:19:28;;;;;;;;;;;;;;;32.43;25.14;100184.09;5407968;32;34568;-88
2023/07/23 15:22:30;;;;;;;;;;;;;;;32.60;24.79;100178.03;5395740;32;36851;-86
2023/07/23 15:25:32;;;;;;;;;;;;;;;32.57;25.17;100167.56;5415711;32;33368;-85
2023/07/23 15:28:35;;;;;;;;;;;;;;;31.99;26.38;100174.53;5395635;32;36666;-85
2023/07/23 15:31:37;;;;;;;;;;;;;;;33.05;24.80;100180.16;5394243;32;34398;-86
2023/07/23 15:34:39;;;;;;;;;;;;;;;33.21;24.34;100176.97;5394152;32;34363;-88
2023/07/23 15:37:41;;;;;;;;;;;;;;;32.42;24.77;100169.66;5414759;32;35500;-87